sensor_id;sensor_type;location;lat;lon;timestamp;P1;durP1;ratioP1;P2;durP2;ratioP2
65924;SDS011;66010;52.084;5.412;2023-04-06T00:01:11;8.68;;;3.80;;
65924;SDS011;66010;52.084;5.412;2023-04-06T00:03:38;8.20;;;3.65;;
65924;SDS011;66010;52.084;5.412;2023-04-06T00:06:05;8.85;;;3.97;;
65924;SDS011;66010;52.084;5.412;2023-04-06T00:08:31;7.47;;;3.65;;
65924;SDS011;66010;52.084;5.412;2023-04-06T00:10:58;9.57;;;4.13;;
65924;SDS011;66010;52.084;5.412;2023-04-06T00:13:24;8.85;;;4.00;;
65924;SDS011;66010;52.084;5.412;2023-04-06T00:15:51;8.77;;;4.07;;
65924;SDS011;66010;52.084;5.412;2023-04-06T00:18:18;7.63;;;3.92;;
65924;SDS011;66010;52.084;5.412;2023-04-06T00:20:45;7.88;;;3.80;;
65924;SDS011;66010;52.084;5.412;2023-04-06T00:23:12;8.20;;;3.80;;
65924;SDS011;66010;52.084;5.412;2023-04-06T00:25:38;7.43;;;3.60;;
65924;SDS011;66010;52.084;5.412;2023-04-06T00:28:05;8.20;;;3.70;;
65924;SDS011;66010;52.084;5.412;2023-04-06T00:30:31;7.35;;;3.58;;
65924;SDS011;66010;52.084;5.412;2023-04-06T00:32:58;10.50;;;3.90;;
65924;SDS011;66010;52.084;5.412;2023-04-06T00:35:24;12.18;;;4.30;;
65924;SDS011;66010;52.084;5.412;2023-04-06T00:37:51;10.95;;;3.75;;
65924;SDS011;66010;52.084;5.412;2023-04-06T00:40:18;9.35;;;3.70;;
65924;SDS011;66010;52.084;5.412;2023-04-06T00:42:45;7.53;;;3.53;;
65924;SDS011;66010;52.084;5.412;2023-04-06T00:45:11;11.10;;;3.67;;
65924;SDS011;66010;52.084;5.412;2023-04-06T00:47:38;7.00;;;3.40;;
65924;SDS011;66010;52.084;5.412;2023-04-06T00:50:05;9.10;;;3.70;;
65924;SDS011;66010;52.084;5.412;2023-04-06T00:52:33;7.70;;;3.50;;
65924;SDS011;66010;52.084;5.412;2023-04-06T00:55:00;7.32;;;3.50;;
65924;SDS011;66010;52.084;5.412;2023-04-06T00:57:27;7.72;;;3.33;;
65924;SDS011;66010;52.084;5.412;2023-04-06T00:59:55;9.10;;;3.58;;
65924;SDS011;66010;52.084;5.412;2023-04-06T01:02:23;7.57;;;3.42;;
65924;SDS011;66010;52.084;5.412;2023-04-06T01:04:51;10.13;;;3.75;;
65924;SDS011;66010;52.084;5.412;2023-04-06T01:07:25;9.65;;;3.70;;
65924;SDS011;66010;52.084;5.412;2023-04-06T01:10:05;8.20;;;3.70;;
65924;SDS011;66010;52.084;5.412;2023-04-06T01:12:33;8.30;;;4.00;;
65924;SDS011;66010;52.084;5.412;2023-04-06T01:15:04;8.70;;;3.70;;
65924;SDS011;66010;52.084;5.412;2023-04-06T01:17:33;8.32;;;3.53;;
65924;SDS011;66010;52.084;5.412;2023-04-06T01:20:07;10.40;;;3.83;;
65924;SDS011;66010;52.084;5.412;2023-04-06T01:22:34;8.73;;;3.40;;
65924;SDS011;66010;52.084;5.412;2023-04-06T01:25:02;8.05;;;3.60;;
65924;SDS011;66010;52.084;5.412;2023-04-06T01:27:55;8.43;;;3.60;;
65924;SDS011;66010;52.084;5.412;2023-04-06T01:30:42;7.82;;;3.88;;
65924;SDS011;66010;52.084;5.412;2023-04-06T01:33:20;8.00;;;3.80;;
65924;SDS011;66010;52.084;5.412;2023-04-06T01:36:01;8.63;;;3.88;;
65924;SDS011;66010;52.084;5.412;2023-04-06T01:38:27;8.23;;;3.83;;
65924;SDS011;66010;52.084;5.412;2023-04-06T01:40:54;10.48;;;4.25;;
65924;SDS011;66010;52.084;5.412;2023-04-06T01:43:23;8.48;;;3.72;;
65924;SDS011;66010;52.084;5.412;2023-04-06T01:46:03;10.15;;;4.00;;
65924;SDS011;66010;52.084;5.412;2023-04-06T01:48:33;7.20;;;3.35;;
65924;SDS011;66010;52.084;5.412;2023-04-06T01:51:08;8.63;;;3.92;;
65924;SDS011;66010;52.084;5.412;2023-04-06T01:53:43;7.63;;;3.70;;
65924;SDS011;66010;52.084;5.412;2023-04-06T01:58:43;7.63;;;3.55;;
65924;SDS011;66010;52.084;5.412;2023-04-06T02:01:12;8.02;;;4.07;;
65924;SDS011;66010;52.084;5.412;2023-04-06T02:03:50;7.13;;;3.50;;
65924;SDS011;66010;52.084;5.412;2023-04-06T02:06:17;8.15;;;3.63;;
65924;SDS011;66010;52.084;5.412;2023-04-06T02:08:44;7.47;;;3.75;;
65924;SDS011;66010;52.084;5.412;2023-04-06T02:11:10;7.97;;;3.67;;
65924;SDS011;66010;52.084;5.412;2023-04-06T02:13:44;9.75;;;3.92;;
65924;SDS011;66010;52.084;5.412;2023-04-06T02:16:11;7.88;;;3.80;;
65924;SDS011;66010;52.084;5.412;2023-04-06T02:18:38;7.93;;;3.65;;
65924;SDS011;66010;52.084;5.412;2023-04-06T02:21:04;8.88;;;3.70;;
65924;SDS011;66010;52.084;5.412;2023-04-06T02:23:31;7.13;;;3.70;;
65924;SDS011;66010;52.084;5.412;2023-04-06T02:25:57;8.23;;;3.90;;
65924;SDS011;66010;52.084;5.412;2023-04-06T02:28:24;7.28;;;3.70;;
65924;SDS011;66010;52.084;5.412;2023-04-06T02:30:50;8.32;;;3.50;;
65924;SDS011;66010;52.084;5.412;2023-04-06T02:33:18;8.15;;;3.70;;
65924;SDS011;66010;52.084;5.412;2023-04-06T02:35:46;7.60;;;3.75;;
65924;SDS011;66010;52.084;5.412;2023-04-06T02:38:13;9.13;;;3.42;;
65924;SDS011;66010;52.084;5.412;2023-04-06T02:40:39;8.30;;;3.78;;
65924;SDS011;66010;52.084;5.412;2023-04-06T02:43:21;9.63;;;3.95;;
65924;SDS011;66010;52.084;5.412;2023-04-06T02:45:52;7.13;;;3.45;;
65924;SDS011;66010;52.084;5.412;2023-04-06T02:48:21;7.82;;;3.80;;
65924;SDS011;66010;52.084;5.412;2023-04-06T02:50:47;7.80;;;3.75;;
65924;SDS011;66010;52.084;5.412;2023-04-06T02:53:14;8.25;;;4.22;;
65924;SDS011;66010;52.084;5.412;2023-04-06T02:55:41;8.52;;;4.35;;
65924;SDS011;66010;52.084;5.412;2023-04-06T02:58:07;10.60;;;4.03;;
65924;SDS011;66010;52.084;5.412;2023-04-06T03:00:42;10.15;;;3.88;;
65924;SDS011;66010;52.084;5.412;2023-04-06T03:03:09;8.73;;;3.83;;
65924;SDS011;66010;52.084;5.412;2023-04-06T03:05:35;10.52;;;4.20;;
65924;SDS011;66010;52.084;5.412;2023-04-06T03:08:02;9.10;;;4.38;;
65924;SDS011;66010;52.084;5.412;2023-04-06T03:10:39;8.48;;;3.80;;
65924;SDS011;66010;52.084;5.412;2023-04-06T03:13:05;8.82;;;3.67;;
65924;SDS011;66010;52.084;5.412;2023-04-06T03:15:43;8.13;;;3.70;;
65924;SDS011;66010;52.084;5.412;2023-04-06T03:18:14;15.07;;;4.38;;
65924;SDS011;66010;52.084;5.412;2023-04-06T03:20:44;7.75;;;3.42;;
65924;SDS011;66010;52.084;5.412;2023-04-06T03:23:13;8.95;;;3.63;;
65924;SDS011;66010;52.084;5.412;2023-04-06T03:25:41;8.55;;;3.22;;
65924;SDS011;66010;52.084;5.412;2023-04-06T03:28:12;7.57;;;3.47;;
65924;SDS011;66010;52.084;5.412;2023-04-06T03:30:47;7.30;;;3.45;;
65924;SDS011;66010;52.084;5.412;2023-04-06T03:33:17;7.55;;;3.50;;
65924;SDS011;66010;52.084;5.412;2023-04-06T03:35:51;9.23;;;3.33;;
65924;SDS011;66010;52.084;5.412;2023-04-06T03:38:18;7.43;;;3.17;;
65924;SDS011;66010;52.084;5.412;2023-04-06T03:40:45;8.70;;;3.60;;
65924;SDS011;66010;52.084;5.412;2023-04-06T03:43:12;6.78;;;3.20;;
65924;SDS011;66010;52.084;5.412;2023-04-06T03:45:39;7.75;;;3.30;;
65924;SDS011;66010;52.084;5.412;2023-04-06T03:48:06;7.38;;;3.20;;
65924;SDS011;66010;52.084;5.412;2023-04-06T03:50:34;8.05;;;3.33;;
65924;SDS011;66010;52.084;5.412;2023-04-06T03:53:01;6.88;;;3.35;;
65924;SDS011;66010;52.084;5.412;2023-04-06T03:55:29;7.60;;;3.20;;
65924;SDS011;66010;52.084;5.412;2023-04-06T03:57:56;6.88;;;3.20;;
65924;SDS011;66010;52.084;5.412;2023-04-06T04:00:24;7.90;;;3.20;;
65924;SDS011;66010;52.084;5.412;2023-04-06T04:02:53;7.97;;;3.40;;
65924;SDS011;66010;52.084;5.412;2023-04-06T04:05:20;7.78;;;3.30;;
65924;SDS011;66010;52.084;5.412;2023-04-06T04:07:51;7.55;;;3.30;;
65924;SDS011;66010;52.084;5.412;2023-04-06T04:10:22;7.38;;;3.33;;
65924;SDS011;66010;52.084;5.412;2023-04-06T04:12:48;6.68;;;3.20;;
65924;SDS011;66010;52.084;5.412;2023-04-06T04:15:15;8.55;;;3.42;;
65924;SDS011;66010;52.084;5.412;2023-04-06T04:17:42;10.27;;;3.72;;
65924;SDS011;66010;52.084;5.412;2023-04-06T04:20:13;8.68;;;3.58;;
65924;SDS011;66010;52.084;5.412;2023-04-06T04:22:40;7.03;;;3.47;;
65924;SDS011;66010;52.084;5.412;2023-04-06T04:25:07;8.30;;;3.80;;
65924;SDS011;66010;52.084;5.412;2023-04-06T04:27:37;7.88;;;3.45;;
65924;SDS011;66010;52.084;5.412;2023-04-06T04:30:04;7.57;;;3.65;;
65924;SDS011;66010;52.084;5.412;2023-04-06T04:35:00;8.77;;;3.78;;
65924;SDS011;66010;52.084;5.412;2023-04-06T04:37:34;9.02;;;3.88;;
65924;SDS011;66010;52.084;5.412;2023-04-06T04:40:02;8.43;;;3.90;;
65924;SDS011;66010;52.084;5.412;2023-04-06T04:42:34;8.27;;;3.65;;
65924;SDS011;66010;52.084;5.412;2023-04-06T04:45:03;8.68;;;3.60;;
65924;SDS011;66010;52.084;5.412;2023-04-06T04:47:36;9.10;;;3.55;;
65924;SDS011;66010;52.084;5.412;2023-04-06T04:50:05;8.93;;;4.03;;
65924;SDS011;66010;52.084;5.412;2023-04-06T04:55:10;8.20;;;3.88;;
65924;SDS011;66010;52.084;5.412;2023-04-06T04:57:36;11.25;;;3.85;;
65924;SDS011;66010;52.084;5.412;2023-04-06T05:00:04;8.77;;;4.03;;
65924;SDS011;66010;52.084;5.412;2023-04-06T05:02:34;8.18;;;3.50;;
65924;SDS011;66010;52.084;5.412;2023-04-06T05:05:22;10.07;;;3.95;;
65924;SDS011;66010;52.084;5.412;2023-04-06T05:07:50;10.30;;;3.67;;
65924;SDS011;66010;52.084;5.412;2023-04-06T05:10:29;10.80;;;4.13;;
65924;SDS011;66010;52.084;5.412;2023-04-06T05:12:58;15.15;;;4.80;;
65924;SDS011;66010;52.084;5.412;2023-04-06T05:17:56;10.88;;;4.05;;
65924;SDS011;66010;52.084;5.412;2023-04-06T05:20:30;9.52;;;4.00;;
65924;SDS011;66010;52.084;5.412;2023-04-06T05:22:57;8.30;;;3.88;;
65924;SDS011;66010;52.084;5.412;2023-04-06T05:25:24;9.93;;;4.10;;
65924;SDS011;66010;52.084;5.412;2023-04-06T05:27:53;8.52;;;4.15;;
65924;SDS011;66010;52.084;5.412;2023-04-06T05:30:28;11.30;;;3.92;;
65924;SDS011;66010;52.084;5.412;2023-04-06T05:32:54;8.07;;;3.90;;
65924;SDS011;66010;52.084;5.412;2023-04-06T05:35:24;8.65;;;4.28;;
65924;SDS011;66010;52.084;5.412;2023-04-06T05:37:55;8.18;;;3.70;;
65924;SDS011;66010;52.084;5.412;2023-04-06T05:40:24;9.18;;;3.97;;
65924;SDS011;66010;52.084;5.412;2023-04-06T05:42:51;10.75;;;4.20;;
65924;SDS011;66010;52.084;5.412;2023-04-06T05:45:19;8.38;;;3.90;;
65924;SDS011;66010;52.084;5.412;2023-04-06T05:47:51;8.45;;;3.97;;
65924;SDS011;66010;52.084;5.412;2023-04-06T05:50:22;9.57;;;4.10;;
65924;SDS011;66010;52.084;5.412;2023-04-06T05:52:49;9.43;;;4.13;;
65924;SDS011;66010;52.084;5.412;2023-04-06T05:55:19;9.77;;;4.18;;
65924;SDS011;66010;52.084;5.412;2023-04-06T05:57:52;11.02;;;4.38;;
65924;SDS011;66010;52.084;5.412;2023-04-06T06:00:20;8.05;;;4.20;;
65924;SDS011;66010;52.084;5.412;2023-04-06T06:02:57;9.25;;;4.28;;
65924;SDS011;66010;52.084;5.412;2023-04-06T06:05:28;8.82;;;4.03;;
65924;SDS011;66010;52.084;5.412;2023-04-06T06:07:59;8.15;;;4.10;;
65924;SDS011;66010;52.084;5.412;2023-04-06T06:10:29;10.48;;;4.60;;
65924;SDS011;66010;52.084;5.412;2023-04-06T06:12:55;9.88;;;4.45;;
65924;SDS011;66010;52.084;5.412;2023-04-06T06:15:22;8.63;;;4.32;;
65924;SDS011;66010;52.084;5.412;2023-04-06T06:17:49;10.02;;;4.13;;
65924;SDS011;66010;52.084;5.412;2023-04-06T06:20:16;10.90;;;4.32;;
65924;SDS011;66010;52.084;5.412;2023-04-06T06:22:43;9.73;;;4.35;;
65924;SDS011;66010;52.084;5.412;2023-04-06T06:25:14;11.15;;;4.97;;
65924;SDS011;66010;52.084;5.412;2023-04-06T06:27:44;13.02;;;5.30;;
65924;SDS011;66010;52.084;5.412;2023-04-06T06:30:10;11.75;;;5.65;;
65924;SDS011;66010;52.084;5.412;2023-04-06T06:32:40;13.02;;;5.65;;
65924;SDS011;66010;52.084;5.412;2023-04-06T06:35:07;12.02;;;5.85;;
65924;SDS011;66010;52.084;5.412;2023-04-06T06:37:34;12.10;;;6.47;;
65924;SDS011;66010;52.084;5.412;2023-04-06T06:42:29;11.65;;;6.15;;
65924;SDS011;66010;52.084;5.412;2023-04-06T06:45:28;14.23;;;6.47;;
65924;SDS011;66010;52.084;5.412;2023-04-06T06:50:22;12.57;;;6.85;;
65924;SDS011;66010;52.084;5.412;2023-04-06T06:52:49;12.85;;;6.75;;
65924;SDS011;66010;52.084;5.412;2023-04-06T06:55:16;12.30;;;6.90;;
65924;SDS011;66010;52.084;5.412;2023-04-06T06:57:46;15.02;;;8.13;;
65924;SDS011;66010;52.084;5.412;2023-04-06T07:00:14;14.73;;;8.10;;
65924;SDS011;66010;52.084;5.412;2023-04-06T07:02:42;15.70;;;8.40;;
65924;SDS011;66010;52.084;5.412;2023-04-06T07:05:08;13.82;;;7.63;;
65924;SDS011;66010;52.084;5.412;2023-04-06T07:07:53;13.95;;;7.97;;
65924;SDS011;66010;52.084;5.412;2023-04-06T07:10:19;14.75;;;8.98;;
65924;SDS011;66010;52.084;5.412;2023-04-06T07:12:46;14.50;;;8.90;;
65924;SDS011;66010;52.084;5.412;2023-04-06T07:15:13;14.98;;;8.18;;
65924;SDS011;66010;52.084;5.412;2023-04-06T07:17:40;15.40;;;8.90;;
65924;SDS011;66010;52.084;5.412;2023-04-06T07:20:14;15.02;;;8.82;;
65924;SDS011;66010;52.084;5.412;2023-04-06T07:22:42;13.63;;;8.27;;
65924;SDS011;66010;52.084;5.412;2023-04-06T07:25:09;15.23;;;9.10;;
65924;SDS011;66010;52.084;5.412;2023-04-06T07:27:41;15.38;;;9.13;;
65924;SDS011;66010;52.084;5.412;2023-04-06T07:30:09;13.65;;;8.77;;
65924;SDS011;66010;52.084;5.412;2023-04-06T07:32:36;15.88;;;9.05;;
65924;SDS011;66010;52.084;5.412;2023-04-06T07:35:03;15.25;;;9.73;;
65924;SDS011;66010;52.084;5.412;2023-04-06T07:37:33;15.05;;;9.00;;
65924;SDS011;66010;52.084;5.412;2023-04-06T07:40:00;16.63;;;8.90;;
65924;SDS011;66010;52.084;5.412;2023-04-06T07:42:31;16.85;;;9.82;;
65924;SDS011;66010;52.084;5.412;2023-04-06T07:44:59;15.60;;;8.45;;
65924;SDS011;66010;52.084;5.412;2023-04-06T07:47:26;14.25;;;5.80;;
65924;SDS011;66010;52.084;5.412;2023-04-06T07:49:54;9.93;;;5.07;;
65924;SDS011;66010;52.084;5.412;2023-04-06T07:52:22;11.38;;;4.60;;
65924;SDS011;66010;52.084;5.412;2023-04-06T07:54:49;10.05;;;4.13;;
65924;SDS011;66010;52.084;5.412;2023-04-06T07:57:15;9.48;;;4.15;;
65924;SDS011;66010;52.084;5.412;2023-04-06T07:59:42;9.32;;;3.92;;
65924;SDS011;66010;52.084;5.412;2023-04-06T08:02:08;10.02;;;3.85;;
65924;SDS011;66010;52.084;5.412;2023-04-06T08:04:35;11.05;;;3.85;;
65924;SDS011;66010;52.084;5.412;2023-04-06T08:07:02;9.02;;;3.58;;
65924;SDS011;66010;52.084;5.412;2023-04-06T08:09:29;8.85;;;4.15;;
65924;SDS011;66010;52.084;5.412;2023-04-06T08:11:55;9.57;;;3.70;;
65924;SDS011;66010;52.084;5.412;2023-04-06T08:14:21;11.13;;;3.80;;
65924;SDS011;66010;52.084;5.412;2023-04-06T08:16:48;9.52;;;3.75;;
65924;SDS011;66010;52.084;5.412;2023-04-06T08:19:17;7.90;;;3.75;;
65924;SDS011;66010;52.084;5.412;2023-04-06T08:21:45;10.10;;;3.88;;
65924;SDS011;66010;52.084;5.412;2023-04-06T08:24:13;9.45;;;4.07;;
65924;SDS011;66010;52.084;5.412;2023-04-06T08:26:40;9.05;;;3.70;;
65924;SDS011;66010;52.084;5.412;2023-04-06T08:29:07;9.23;;;3.90;;
65924;SDS011;66010;52.084;5.412;2023-04-06T08:31:34;8.18;;;3.58;;
65924;SDS011;66010;52.084;5.412;2023-04-06T08:34:01;9.00;;;3.72;;
65924;SDS011;66010;52.084;5.412;2023-04-06T08:36:28;9.15;;;3.75;;
65924;SDS011;66010;52.084;5.412;2023-04-06T08:38:54;7.78;;;3.42;;
65924;SDS011;66010;52.084;5.412;2023-04-06T08:41:21;9.35;;;3.40;;
65924;SDS011;66010;52.084;5.412;2023-04-06T08:43:48;8.82;;;3.80;;
65924;SDS011;66010;52.084;5.412;2023-04-06T08:46:15;8.40;;;3.85;;
65924;SDS011;66010;52.084;5.412;2023-04-06T08:48:42;9.23;;;3.65;;
65924;SDS011;66010;52.084;5.412;2023-04-06T08:51:09;9.10;;;3.67;;
65924;SDS011;66010;52.084;5.412;2023-04-06T08:53:36;9.35;;;3.75;;
65924;SDS011;66010;52.084;5.412;2023-04-06T08:56:03;9.32;;;3.97;;
65924;SDS011;66010;52.084;5.412;2023-04-06T09:01:05;9.63;;;3.55;;
65924;SDS011;66010;52.084;5.412;2023-04-06T09:03:33;9.05;;;3.40;;
65924;SDS011;66010;52.084;5.412;2023-04-06T09:06:01;9.40;;;3.55;;
65924;SDS011;66010;52.084;5.412;2023-04-06T09:08:28;9.80;;;3.65;;
65924;SDS011;66010;52.084;5.412;2023-04-06T09:10:55;8.95;;;3.75;;
65924;SDS011;66010;52.084;5.412;2023-04-06T09:13:22;7.88;;;3.38;;
65924;SDS011;66010;52.084;5.412;2023-04-06T09:15:58;8.25;;;3.38;;
65924;SDS011;66010;52.084;5.412;2023-04-06T09:18:31;7.97;;;3.22;;
65924;SDS011;66010;52.084;5.412;2023-04-06T09:20:58;7.97;;;3.50;;
65924;SDS011;66010;52.084;5.412;2023-04-06T09:23:25;8.32;;;3.30;;
65924;SDS011;66010;52.084;5.412;2023-04-06T09:25:52;10.20;;;3.80;;
65924;SDS011;66010;52.084;5.412;2023-04-06T09:28:29;10.35;;;3.72;;
65924;SDS011;66010;52.084;5.412;2023-04-06T09:30:55;12.13;;;3.72;;
65924;SDS011;66010;52.084;5.412;2023-04-06T09:33:22;8.70;;;3.78;;
65924;SDS011;66010;52.084;5.412;2023-04-06T09:35:49;7.95;;;3.40;;
65924;SDS011;66010;52.084;5.412;2023-04-06T09:38:16;8.00;;;3.47;;
65924;SDS011;66010;52.084;5.412;2023-04-06T09:40:51;8.65;;;3.70;;
65924;SDS011;66010;52.084;5.412;2023-04-06T09:43:24;8.68;;;3.88;;
65924;SDS011;66010;52.084;5.412;2023-04-06T09:45:52;8.50;;;3.33;;
65924;SDS011;66010;52.084;5.412;2023-04-06T09:48:19;7.45;;;3.35;;
65924;SDS011;66010;52.084;5.412;2023-04-06T09:50:50;7.30;;;3.30;;
65924;SDS011;66010;52.084;5.412;2023-04-06T09:53:19;7.47;;;3.28;;
65924;SDS011;66010;52.084;5.412;2023-04-06T09:58:16;7.65;;;3.00;;
65924;SDS011;66010;52.084;5.412;2023-04-06T10:00:51;7.07;;;3.38;;
65924;SDS011;66010;52.084;5.412;2023-04-06T10:03:42;8.25;;;3.05;;
65924;SDS011;66010;52.084;5.412;2023-04-06T10:06:13;7.20;;;3.33;;
65924;SDS011;66010;52.084;5.412;2023-04-06T10:08:40;7.07;;;3.38;;
65924;SDS011;66010;52.084;5.412;2023-04-06T10:11:08;8.02;;;3.40;;
65924;SDS011;66010;52.084;5.412;2023-04-06T10:13:35;7.95;;;3.30;;
65924;SDS011;66010;52.084;5.412;2023-04-06T10:16:01;8.77;;;3.60;;
65924;SDS011;66010;52.084;5.412;2023-04-06T10:21:03;10.43;;;3.70;;
65924;SDS011;66010;52.084;5.412;2023-04-06T10:26:04;8.02;;;3.60;;
65924;SDS011;66010;52.084;5.412;2023-04-06T10:28:31;7.78;;;3.47;;
65924;SDS011;66010;52.084;5.412;2023-04-06T10:30:59;9.73;;;3.30;;
65924;SDS011;66010;52.084;5.412;2023-04-06T10:33:26;8.43;;;3.38;;
65924;SDS011;66010;52.084;5.412;2023-04-06T10:35:52;8.65;;;3.65;;
65924;SDS011;66010;52.084;5.412;2023-04-06T10:38:19;7.68;;;3.00;;
65924;SDS011;66010;52.084;5.412;2023-04-06T10:40:48;7.82;;;3.25;;
65924;SDS011;66010;52.084;5.412;2023-04-06T10:43:21;7.25;;;3.03;;
65924;SDS011;66010;52.084;5.412;2023-04-06T10:45:55;8.20;;;3.10;;
65924;SDS011;66010;52.084;5.412;2023-04-06T10:48:22;7.13;;;3.00;;
65924;SDS011;66010;52.084;5.412;2023-04-06T10:50:51;8.60;;;3.00;;
65924;SDS011;66010;52.084;5.412;2023-04-06T10:53:22;7.70;;;2.75;;
65924;SDS011;66010;52.084;5.412;2023-04-06T10:55:49;6.45;;;2.70;;
65924;SDS011;66010;52.084;5.412;2023-04-06T11:00:45;6.60;;;2.78;;
65924;SDS011;66010;52.084;5.412;2023-04-06T11:03:16;6.50;;;2.70;;
65924;SDS011;66010;52.084;5.412;2023-04-06T11:05:47;5.75;;;2.55;;
65924;SDS011;66010;52.084;5.412;2023-04-06T11:08:27;5.78;;;2.40;;
65924;SDS011;66010;52.084;5.412;2023-04-06T11:11:10;7.22;;;2.50;;
65924;SDS011;66010;52.084;5.412;2023-04-06T11:13:44;5.18;;;2.30;;
65924;SDS011;66010;52.084;5.412;2023-04-06T11:18:47;5.72;;;2.30;;
65924;SDS011;66010;52.084;5.412;2023-04-06T11:21:14;5.85;;;2.40;;
65924;SDS011;66010;52.084;5.412;2023-04-06T11:23:40;5.18;;;2.20;;
65924;SDS011;66010;52.084;5.412;2023-04-06T11:26:13;5.35;;;2.33;;
65924;SDS011;66010;52.084;5.412;2023-04-06T11:28:43;4.97;;;2.05;;
65924;SDS011;66010;52.084;5.412;2023-04-06T11:31:10;5.80;;;2.10;;
65924;SDS011;66010;52.084;5.412;2023-04-06T11:36:04;4.82;;;2.20;;
65924;SDS011;66010;52.084;5.412;2023-04-06T11:38:31;5.45;;;2.22;;
65924;SDS011;66010;52.084;5.412;2023-04-06T11:40:58;7.22;;;2.15;;
65924;SDS011;66010;52.084;5.412;2023-04-06T11:43:28;7.22;;;2.30;;
65924;SDS011;66010;52.084;5.412;2023-04-06T11:45:59;5.53;;;2.17;;
65924;SDS011;66010;52.084;5.412;2023-04-06T11:48:26;5.18;;;2.10;;
65924;SDS011;66010;52.084;5.412;2023-04-06T11:50:56;4.97;;;2.13;;
65924;SDS011;66010;52.084;5.412;2023-04-06T11:53:24;6.35;;;1.98;;
65924;SDS011;66010;52.084;5.412;2023-04-06T11:55:51;4.80;;;2.20;;
65924;SDS011;66010;52.084;5.412;2023-04-06T11:58:17;4.75;;;1.92;;
65924;SDS011;66010;52.084;5.412;2023-04-06T12:00:44;5.07;;;2.03;;
65924;SDS011;66010;52.084;5.412;2023-04-06T12:03:13;5.07;;;2.00;;
65924;SDS011;66010;52.084;5.412;2023-04-06T12:05:39;5.63;;;2.30;;
65924;SDS011;66010;52.084;5.412;2023-04-06T12:08:06;8.15;;;2.15;;
65924;SDS011;66010;52.084;5.412;2023-04-06T12:10:33;10.38;;;2.47;;
65924;SDS011;66010;52.084;5.412;2023-04-06T12:12:59;6.22;;;1.90;;
65924;SDS011;66010;52.084;5.412;2023-04-06T12:15:26;5.93;;;1.83;;
65924;SDS011;66010;52.084;5.412;2023-04-06T12:17:53;6.80;;;2.08;;
65924;SDS011;66010;52.084;5.412;2023-04-06T12:20:19;4.93;;;1.95;;
65924;SDS011;66010;52.084;5.412;2023-04-06T12:22:52;5.10;;;1.92;;
65924;SDS011;66010;52.084;5.412;2023-04-06T12:25:18;5.65;;;1.80;;
65924;SDS011;66010;52.084;5.412;2023-04-06T12:27:45;6.03;;;2.13;;
65924;SDS011;66010;52.084;5.412;2023-04-06T12:30:11;5.20;;;1.98;;
65924;SDS011;66010;52.084;5.412;2023-04-06T12:32:38;5.68;;;2.17;;
65924;SDS011;66010;52.084;5.412;2023-04-06T12:35:05;3.70;;;1.85;;
65924;SDS011;66010;52.084;5.412;2023-04-06T12:37:32;5.80;;;2.20;;
65924;SDS011;66010;52.084;5.412;2023-04-06T12:39:58;3.85;;;1.80;;
65924;SDS011;66010;52.084;5.412;2023-04-06T12:42:24;4.40;;;2.00;;
65924;SDS011;66010;52.084;5.412;2023-04-06T12:44:51;5.65;;;2.10;;
65924;SDS011;66010;52.084;5.412;2023-04-06T12:47:18;5.97;;;2.10;;
65924;SDS011;66010;52.084;5.412;2023-04-06T12:49:44;5.95;;;2.00;;
65924;SDS011;66010;52.084;5.412;2023-04-06T12:52:11;4.85;;;1.90;;
65924;SDS011;66010;52.084;5.412;2023-04-06T12:54:38;5.43;;;2.03;;
65924;SDS011;66010;52.084;5.412;2023-04-06T12:57:04;5.05;;;1.95;;
65924;SDS011;66010;52.084;5.412;2023-04-06T12:59:31;5.75;;;2.00;;
65924;SDS011;66010;52.084;5.412;2023-04-06T13:02:01;5.72;;;2.00;;
65924;SDS011;66010;52.084;5.412;2023-04-06T13:04:29;5.07;;;2.00;;
65924;SDS011;66010;52.084;5.412;2023-04-06T13:06:55;5.25;;;2.00;;
65924;SDS011;66010;52.084;5.412;2023-04-06T13:09:22;4.95;;;2.00;;
65924;SDS011;66010;52.084;5.412;2023-04-06T13:11:48;5.95;;;1.95;;
65924;SDS011;66010;52.084;5.412;2023-04-06T13:14:15;3.30;;;1.70;;
65924;SDS011;66010;52.084;5.412;2023-04-06T13:16:42;4.50;;;1.98;;
65924;SDS011;66010;52.084;5.412;2023-04-06T13:19:09;6.50;;;2.17;;
65924;SDS011;66010;52.084;5.412;2023-04-06T13:21:37;3.95;;;1.75;;
65924;SDS011;66010;52.084;5.412;2023-04-06T13:24:03;4.72;;;1.77;;
65924;SDS011;66010;52.084;5.412;2023-04-06T13:26:31;3.47;;;1.77;;
65924;SDS011;66010;52.084;5.412;2023-04-06T13:28:58;4.22;;;1.90;;
65924;SDS011;66010;52.084;5.412;2023-04-06T13:31:25;3.70;;;1.77;;
65924;SDS011;66010;52.084;5.412;2023-04-06T13:33:52;5.30;;;2.03;;
65924;SDS011;66010;52.084;5.412;2023-04-06T13:36:18;6.10;;;2.10;;
65924;SDS011;66010;52.084;5.412;2023-04-06T13:38:45;8.10;;;1.95;;
65924;SDS011;66010;52.084;5.412;2023-04-06T13:41:21;7.30;;;1.90;;
65924;SDS011;66010;52.084;5.412;2023-04-06T13:43:48;4.43;;;1.88;;
65924;SDS011;66010;52.084;5.412;2023-04-06T13:46:14;5.03;;;2.10;;
65924;SDS011;66010;52.084;5.412;2023-04-06T13:48:41;5.47;;;2.17;;
65924;SDS011;66010;52.084;5.412;2023-04-06T13:51:12;4.38;;;1.80;;
65924;SDS011;66010;52.084;5.412;2023-04-06T13:53:39;5.90;;;2.08;;
65924;SDS011;66010;52.084;5.412;2023-04-06T13:56:07;7.82;;;2.60;;
65924;SDS011;66010;52.084;5.412;2023-04-06T13:58:34;32.55;;;9.07;;
65924;SDS011;66010;52.084;5.412;2023-04-06T14:01:05;30.25;;;9.90;;
65924;SDS011;66010;52.084;5.412;2023-04-06T14:03:33;44.28;;;13.07;;
65924;SDS011;66010;52.084;5.412;2023-04-06T14:06:00;42.92;;;14.18;;
65924;SDS011;66010;52.084;5.412;2023-04-06T14:08:40;39.15;;;13.60;;
65924;SDS011;66010;52.084;5.412;2023-04-06T14:11:10;37.35;;;13.18;;
65924;SDS011;66010;52.084;5.412;2023-04-06T14:13:38;36.40;;;12.70;;
65924;SDS011;66010;52.084;5.412;2023-04-06T14:16:05;37.63;;;12.48;;
65924;SDS011;66010;52.084;5.412;2023-04-06T14:18:31;34.17;;;11.82;;
65924;SDS011;66010;52.084;5.412;2023-04-06T14:21:00;34.53;;;11.55;;
65924;SDS011;66010;52.084;5.412;2023-04-06T14:23:27;27.35;;;10.52;;
65924;SDS011;66010;52.084;5.412;2023-04-06T14:26:03;26.50;;;9.93;;
65924;SDS011;66010;52.084;5.412;2023-04-06T14:28:30;29.48;;;10.18;;
65924;SDS011;66010;52.084;5.412;2023-04-06T14:30:58;28.92;;;9.98;;
65924;SDS011;66010;52.084;5.412;2023-04-06T14:33:24;25.23;;;10.23;;
65924;SDS011;66010;52.084;5.412;2023-04-06T14:35:51;26.38;;;9.27;;
65924;SDS011;66010;52.084;5.412;2023-04-06T14:38:17;27.02;;;8.63;;
65924;SDS011;66010;52.084;5.412;2023-04-06T14:40:44;22.60;;;9.07;;
65924;SDS011;66010;52.084;5.412;2023-04-06T14:43:11;21.75;;;8.07;;
65924;SDS011;66010;52.084;5.412;2023-04-06T14:45:37;23.60;;;9.05;;
65924;SDS011;66010;52.084;5.412;2023-04-06T14:48:05;22.65;;;8.18;;
65924;SDS011;66010;52.084;5.412;2023-04-06T14:50:38;23.10;;;8.65;;
65924;SDS011;66010;52.084;5.412;2023-04-06T14:53:05;21.75;;;7.93;;
65924;SDS011;66010;52.084;5.412;2023-04-06T14:55:31;19.55;;;7.05;;
65924;SDS011;66010;52.084;5.412;2023-04-06T14:57:58;17.70;;;7.65;;
65924;SDS011;66010;52.084;5.412;2023-04-06T15:00:24;19.60;;;7.28;;
65924;SDS011;66010;52.084;5.412;2023-04-06T15:02:51;16.45;;;6.55;;
65924;SDS011;66010;52.084;5.412;2023-04-06T15:05:17;20.38;;;6.60;;
65924;SDS011;66010;52.084;5.412;2023-04-06T15:07:44;17.90;;;6.78;;
65924;SDS011;66010;52.084;5.412;2023-04-06T15:10:11;18.05;;;6.57;;
65924;SDS011;66010;52.084;5.412;2023-04-06T15:12:37;16.08;;;6.35;;
65924;SDS011;66010;52.084;5.412;2023-04-06T15:15:04;16.20;;;5.85;;
65924;SDS011;66010;52.084;5.412;2023-04-06T15:17:31;14.10;;;5.68;;
65924;SDS011;66010;52.084;5.412;2023-04-06T15:19:58;15.15;;;5.70;;
65924;SDS011;66010;52.084;5.412;2023-04-06T15:22:24;16.92;;;5.97;;
65924;SDS011;66010;52.084;5.412;2023-04-06T15:24:51;15.23;;;5.65;;